Time;durP1;ratioP1;P1;durP2;ratioP2;P2;SDS_P1;SDS_P2;PMS_P1;PMS_P2;Temp;Humidity;BMP_temperature;BMP_pressure;BME280_temperature;BME280_humidity;BME280_pressure;Samples;Min_cycle;Max_cycle;Signal;HPM_P1;HPM_P2
2021/12/26 00:02:39;;;;;;;;;;;;;;;;;;;;;
2021/12/26 00:05:51;;;;;;;;;26.25;23.50;;;;;11.64;74.12;100083.97;4879798;29;71379;-89
2021/12/26 00:08:22;;;;;;;;;22.25;21.00;;;;;11.57;73.98;100071.78;4853047;29;47288;-86
2021/12/26 00:11:16;;;;;;;;;32.75;25.50;;;;;11.59;73.96;100074.41;4864122;29;45483;-86
2021/12/26 00:13:42;;;;;;;;;27.00;24.00;;;;;11.58;74.34;100070.03;4977952;28;45600;-87
2021/12/26 00:16:09;;;;;;;;;27.25;23.50;;;;;11.57;74.24;100074.44;5018748;28;45907;-85
2021/12/26 00:18:53;;;;;;;;;25.75;19.00;;;;;11.56;74.25;100075.34;5048375;28;46358;-86
2021/12/26 00:21:21;;;;;;;;;29.50;22.50;;;;;11.49;74.25;100065.78;5056226;28;45569;-86
2021/12/26 00:23:47;;;;;;;;;22.50;20.50;;;;;11.53;74.11;100070.13;5027206;28;45320;-86
2021/12/26 00:26:16;;;;;;;;;20.25;18.75;;;;;11.50;73.95;100058.78;5040718;28;45551;-87
2021/12/26 00:28:42;;;;;;;;;22.00;17.75;;;;;11.51;73.99;100057.88;5024905;28;46523;-86
2021/12/26 00:31:08;;;;;;;;;18.50;17.50;;;;;11.54;74.01;100066.56;5054496;28;45413;-86
2021/12/26 00:33:34;;;;;;;;;24.25;23.25;;;;;11.57;73.84;100063.88;5035376;28;45422;-85
2021/12/26 00:36:01;;;;;;;;;22.00;20.50;;;;;11.53;73.97;100058.72;5059299;28;45362;-85
2021/12/26 00:38:27;;;;;;;;;24.25;21.25;;;;;11.54;73.87;100053.41;5031814;28;46293;-85
2021/12/26 00:40:53;;;;;;;;;23.75;19.50;;;;;11.59;73.95;100045.41;5057925;28;45664;-87
2021/12/26 00:43:19;;;;;;;;;18.75;18.00;;;;;11.59;73.82;100050.69;5040415;28;45462;-86
2021/12/26 00:45:46;;;;;;;;;24.75;21.50;;;;;11.56;73.97;100040.19;5048493;28;45488;-85
2021/12/26 00:48:12;;;;;;;;;24.50;22.25;;;;;11.53;73.81;100040.25;5043316;28;48248;-85
2021/12/26 00:50:43;;;;;;;;;23.50;17.75;;;;;11.55;73.86;100047.25;5053343;28;45336;-87
2021/12/26 00:53:43;;;;;;;;;29.00;23.50;;;;;11.56;73.90;100051.63;5060506;28;45378;-86
2021/12/26 00:56:08;;;;;;;;;21.75;19.00;;;;;11.48;74.07;100038.56;5048516;28;45408;-86
2021/12/26 00:58:34;;;;;;;;;20.75;19.75;;;;;11.55;73.98;100057.78;5041871;28;45410;-85
2021/12/26 01:01:00;;;;;;;;;21.50;20.50;;;;;11.53;73.95;100054.31;5060469;28;45232;-84
2021/12/26 01:03:26;;;;;;;;;26.75;21.00;;;;;11.49;73.99;100034.16;5042854;28;45283;-84
2021/12/26 01:05:57;;;;;;;;;25.25;22.25;;;;;11.58;74.10;100052.47;5043114;28;45261;-84
2021/12/26 01:08:27;;;;;;;;;24.25;20.50;;;;;11.56;74.12;100048.13;5041426;28;46257;-84
2021/12/26 01:11:21;;;;;;;;;25.50;21.00;;;;;11.54;74.12;100047.25;5040114;28;45486;-85
2021/12/26 01:13:49;;;;;;;;;27.25;24.00;;;;;11.52;74.29;100051.69;5039697;28;45831;-84
2021/12/26 01:16:18;;;;;;;;;27.25;22.75;;;;;11.43;74.27;100039.56;5057532;28;45418;-85
2021/12/26 01:18:50;;;;;;;;;36.00;26.25;;;;;11.44;74.43;100046.56;5057910;28;45661;-85
2021/12/26 01:21:18;;;;;;;;;27.00;22.75;;;;;11.52;74.14;100052.59;5058191;28;45459;-85
2021/12/26 01:23:51;;;;;;;;;27.75;22.50;;;;;11.43;74.04;100048.31;5040219;28;45543;-85
2021/12/26 01:26:18;;;;;;;;;22.50;20.50;;;;;11.46;74.42;100047.41;5059684;28;45505;-85
2021/12/26 01:28:43;;;;;;;;;24.00;21.50;;;;;11.45;74.25;100051.81;5060429;28;45540;-85
2021/12/26 01:31:09;;;;;;;;;26.00;23.00;;;;;11.50;74.33;100059.63;5060928;28;45403;-85
2021/12/26 01:33:35;;;;;;;;;29.25;22.00;;;;;11.42;73.95;100043.09;5043314;28;45343;-83
2021/12/26 01:36:01;;;;;;;;;22.25;19.75;;;;;11.46;74.22;100050.03;5043207;28;45507;-85
2021/12/26 01:38:27;;;;;;;;;21.75;21.25;;;;;11.42;74.10;100043.09;5043205;28;47048;-84
2021/12/26 01:40:56;;;;;;;;;25.00;24.25;;;;;11.44;73.97;100038.66;5045460;28;45289;-84
2021/12/26 01:43:30;;;;;;;;;21.75;19.25;;;;;11.48;74.07;100049.13;5063220;28;45358;-84
2021/12/26 01:46:01;;;;;;;;;24.00;21.75;;;;;11.43;74.07;100044.84;5063330;28;45422;-84
2021/12/26 01:48:26;;;;;;;;;21.75;20.00;;;;;11.45;74.22;100046.53;5063122;28;45474;-84
2021/12/26 01:50:53;;;;;;;;;24.25;20.50;;;;;11.42;74.13;100043.09;5063289;28;45403;-84
2021/12/26 01:53:22;;;;;;;;;23.25;19.50;;;;;11.44;73.98;100049.19;5062087;28;45309;-85
2021/12/26 01:55:48;;;;;;;;;25.25;20.75;;;;;11.39;74.23;100040.53;5045105;28;45367;-84
2021/12/26 01:58:20;;;;;;;;;24.50;20.50;;;;;11.35;74.09;100037.06;5045322;28;47296;-85
2021/12/26 02:00:54;;;;;;;;;25.75;21.25;;;;;11.29;74.09;100034.53;5063191;28;45506;-84
2021/12/26 02:03:21;;;;;;;;;19.25;18.00;;;;;11.31;74.29;100042.44;5045104;28;45436;-84
2021/12/26 02:05:46;;;;;;;;;21.00;20.00;;;;;11.32;74.20;100042.38;5024688;28;45470;-85
2021/12/26 02:08:15;;;;;;;;;20.75;17.00;;;;;11.36;74.33;100051.09;5042734;28;45280;-85
2021/12/26 02:10:41;;;;;;;;;22.75;17.50;;;;;11.27;74.27;100041.59;5042843;28;45354;-84
2021/12/26 02:13:09;;;;;;;;;19.25;19.25;;;;;11.34;74.42;100047.66;5043066;28;45288;-85
2021/12/26 02:15:35;;;;;;;;;26.00;21.50;;;;;11.29;74.40;100047.72;5042523;28;45446;-84
2021/12/26 02:18:01;;;;;;;;;25.50;21.25;;;;;11.36;74.44;100056.38;5025082;28;45490;-86
2021/12/26 02:20:41;;;;;;;;;25.75;23.50;;;;;11.35;74.43;100049.38;5043713;28;45410;-85
2021/12/26 02:23:22;;;;;;;;;24.00;23.00;;;;;11.37;74.34;100058.13;5043879;28;46369;-84
2021/12/26 02:28:25;;;;;;;;;21.75;21.00;;;;;11.32;74.70;100047.66;5042484;28;45451;-84
2021/12/26 02:30:53;;;;;;;;;23.00;20.00;;;;;11.33;74.51;100043.25;5021315;28;45410;-85
2021/12/26 02:33:19;;;;;;;;;26.25;22.50;;;;;11.29;74.50;100036.31;5037023;28;45253;-85
2021/12/26 02:35:47;;;;;;;;;25.25;20.50;;;;;11.37;74.64;100051.09;5042618;28;45511;-85
2021/12/26 02:38:14;;;;;;;;;29.00;24.25;;;;;11.38;74.55;100051.94;5042326;28;45500;-84
2021/12/26 02:40:42;;;;;;;;;26.00;23.50;;;;;11.34;74.61;100039.75;5024532;28;45308;-85
2021/12/26 02:43:08;;;;;;;;;22.25;20.75;;;;;11.37;74.71;100037.03;5024280;28;45272;-85
2021/12/26 02:45:34;;;;;;;;;20.75;17.25;;;;;11.29;74.56;100031.03;5024350;28;45535;-84
2021/12/26 02:48:01;;;;;;;;;29.25;24.75;;;;;11.33;74.69;100035.34;5042183;28;45640;-85
2021/12/26 02:50:30;;;;;;;;;17.50;17.50;;;;;11.33;74.37;100035.34;5040538;28;45414;-85
2021/12/26 02:52:58;;;;;;;;;29.00;25.25;;;;;11.29;74.84;100031.91;5042291;28;45224;-85
2021/12/26 02:55:24;;;;;;;;;27.00;19.50;;;;;11.27;74.80;100026.66;5040768;28;45514;-85
2021/12/26 02:57:53;;;;;;;;;25.50;24.00;;;;;11.33;74.66;100038.84;5023774;28;46951;-83
2021/12/26 03:00:21;;;;;;;;;26.50;22.25;;;;;11.25;74.83;100022.31;5042243;28;45462;-84
2021/12/26 03:02:52;;;;;;;;;21.25;18.50;;;;;11.31;74.69;100032.75;5042500;28;45335;-85
2021/12/26 03:05:19;;;;;;;;;24.25;23.25;;;;;11.31;74.83;100035.41;5024234;28;45573;-84
2021/12/26 03:07:48;;;;;;;;;24.25;22.00;;;;;11.28;74.80;100027.56;5024037;28;46780;-85
2021/12/26 03:10:22;;;;;;;;;23.75;22.50;;;;;11.32;74.92;100037.13;5042092;28;45311;-84
2021/12/26 03:12:50;;;;;;;;;27.50;23.00;;;;;11.30;75.04;100032.78;5042171;28;45461;-84
2021/12/26 03:15:16;;;;;;;;;27.25;22.75;;;;;11.34;74.92;100031.84;5023986;28;45506;-85
2021/12/26 03:17:42;;;;;;;;;26.25;23.50;;;;;11.38;74.74;100036.13;5041819;28;45439;-85
2021/12/26 03:20:13;;;;;;;;;26.00;22.25;;;;;11.36;74.78;100028.28;5024808;28;45345;-85
2021/12/26 03:22:38;;;;;;;;;23.50;19.50;;;;;11.38;74.94;100022.97;5042179;28;45284;-85
2021/12/26 03:25:12;;;;;;;;;21.25;20.25;;;;;11.33;74.64;100019.53;5024559;28;45540;-85
2021/12/26 03:27:38;;;;;;;;;26.75;20.25;;;;;11.40;74.71;100029.94;5028845;28;47777;-85
2021/12/26 03:30:08;;;;;;;;;21.00;20.00;;;;;11.36;74.91;100027.38;5025059;28;45265;-85
2021/12/26 03:32:34;;;;;;;;;22.25;21.50;;;;;11.36;74.77;100028.28;5025193;28;45479;-85
2021/12/26 03:35:00;;;;;;;;;19.50;19.25;;;;;11.39;74.75;100032.63;5023964;28;45858;-85
2021/12/26 03:37:28;;;;;;;;;19.75;17.00;;;;;11.40;74.43;100034.34;5042268;28;45185;-85
2021/12/26 03:39:55;;;;;;;;;25.00;20.75;;;;;11.36;74.77;100028.28;5024021;28;45540;-84
2021/12/26 03:42:21;;;;;;;;;21.50;19.50;;;;;11.32;74.64;100016.03;5040513;28;45426;-85
2021/12/26 03:44:50;;;;;;;;;23.00;20.25;;;;;11.39;74.53;100040.53;5025109;28;45422;-84
2021/12/26 03:47:16;;;;;;;;;25.75;20.75;;;;;11.35;74.47;100030.94;5026446;28;47181;-85
2021/12/26 03:49:42;;;;;;;;;18.50;17.75;;;;;11.34;74.73;100019.53;5023444;28;45473;-85
2021/12/26 03:52:08;;;;;;;;;23.75;18.25;;;;;11.39;74.75;100024.72;5023563;28;45305;-84
2021/12/26 03:54:34;;;;;;;;;21.75;20.50;;;;;11.43;74.86;100029.00;5041333;28;45235;-84
2021/12/26 03:57:00;;;;;;;;;22.75;20.00;;;;;11.36;74.72;100011.56;5041392;28;45540;-85
2021/12/26 03:59:27;;;;;;;;;25.75;22.00;;;;;11.39;74.44;100014.19;5022497;28;45455;-84
2021/12/26 04:01:54;;;;;;;;;23.25;21.25;;;;;11.40;74.51;100018.53;5040730;28;45514;-85
2021/12/26 04:04:20;;;;;;;;;22.00;18.00;;;;;11.37;74.84;100008.91;5023885;28;45415;-84
2021/12/26 04:06:46;;;;;;;;;23.75;18.00;;;;;11.39;74.49;100004.50;5042380;28;45235;-85
2021/12/26 04:09:12;;;;;;;;;21.25;18.50;;;;;11.46;74.46;100027.19;5023517;28;45353;-84
2021/12/26 04:11:44;;;;;;;;;24.25;19.00;;;;;11.40;74.71;100003.59;5042188;28;45257;-85
2021/12/26 04:14:09;;;;;;;;;24.00;24.00;;;;;11.41;74.55;100002.72;5022975;28;45432;-85
2021/12/26 04:16:35;;;;;;;;;23.25;20.75;;;;;11.45;74.41;100006.16;5040931;28;45318;-85
2021/12/26 04:19:02;;;;;;;;;21.75;18.75;;;;;11.42;74.48;100007.06;5023672;28;45285;-84
2021/12/26 04:21:27;;;;;;;;;26.00;23.75;;;;;11.37;74.41;99997.50;5042298;28;45344;-85
2021/12/26 04:23:53;;;;;;;;;24.50;21.25;;;;;11.37;74.61;100000.16;5023807;28;45296;-84
2021/12/26 04:26:19;;;;;;;;;21.75;19.75;;;;;11.37;74.60;100005.41;5023552;28;47027;-84
2021/12/26 04:28:46;;;;;;;;;25.75;24.25;;;;;11.35;74.66;100001.94;5023127;28;45569;-84
2021/12/26 04:31:12;;;;;;;;;24.00;21.00;;;;;11.30;74.80;99994.09;5041281;28;45517;-85
2021/12/26 04:33:37;;;;;;;;;26.75;23.00;;;;;11.31;74.73;99995.00;5040768;28;45356;-85
2021/12/26 04:36:03;;;;;;;;;26.25;18.75;;;;;11.32;74.78;99997.59;5041303;28;45239;-84
2021/12/26 04:38:29;;;;;;;;;19.25;18.00;;;;;11.39;74.70;100004.50;5039642;28;45434;-85
2021/12/26 04:40:58;;;;;;;;;26.75;22.50;;;;;11.38;74.92;100005.38;5023215;28;45375;-85
2021/12/26 04:43:34;;;;;;;;;;;;;;;;;;;;;
2021/12/26 04:46:02;;;;;;;;;23.50;20.25;;;;;11.33;74.77;99993.19;5032574;28;75310;-84
2021/12/26 04:48:30;;;;;;;;;21.50;20.50;;;;;11.37;74.50;100001.00;5023035;28;45518;-84
2021/12/26 04:50:56;;;;;;;;;24.25;22.25;;;;;11.37;74.77;99992.25;5023052;28;45229;-84
2021/12/26 04:53:21;;;;;;;;;22.75;20.25;;;;;11.38;74.92;99989.56;5022838;28;45887;-84
2021/12/26 04:55:47;;;;;;;;;20.75;20.50;;;;;11.39;75.03;99996.59;5022692;28;46397;-85
2021/12/26 04:58:15;;;;;;;;;26.00;23.25;;;;;11.32;74.91;99984.41;5036089;28;45314;-85
2021/12/26 05:00:41;;;;;;;;;24.50;22.25;;;;;11.33;74.77;99986.16;5034023;28;45331;-84
2021/12/26 05:03:08;;;;;;;;;26.00;22.75;;;;;11.36;74.71;99982.59;5022649;28;45482;-85
2021/12/26 05:05:34;;;;;;;;;23.75;23.00;;;;;11.35;74.88;99973.81;5022268;28;46592;-85
2021/12/26 05:07:59;;;;;;;;;21.00;18.25;;;;;11.43;74.78;99989.47;5022255;28;45510;-83
2021/12/26 05:10:28;;;;;;;;;24.25;19.00;;;;;11.39;74.84;99977.28;5022730;28;45187;-84
2021/12/26 05:12:54;;;;;;;;;28.75;26.00;;;;;11.37;74.80;99969.38;5040002;28;45284;-85
2021/12/26 05:15:21;;;;;;;;;23.00;20.50;;;;;11.39;74.93;99980.78;5018981;28;47066;-85
2021/12/26 05:17:49;;;;;;;;;21.75;20.50;;;;;11.35;74.78;99968.53;5039937;28;45427;-84
2021/12/26 05:20:18;;;;;;;;;20.75;17.50;;;;;11.44;75.04;99978.03;5040391;28;45451;-84
2021/12/26 05:22:44;;;;;;;;;21.25;19.25;;;;;11.41;74.86;99984.25;5022503;28;45561;-85
2021/12/26 05:25:10;;;;;;;;;22.25;19.00;;;;;11.38;75.01;99978.16;5040046;28;45441;-84
2021/12/26 05:27:39;;;;;;;;;24.75;23.00;;;;;11.34;74.88;99979.13;5039284;28;45390;-85
2021/12/26 05:30:08;;;;;;;;;25.00;21.75;;;;;11.27;74.96;99971.31;5039265;28;45282;-84
2021/12/26 05:32:34;;;;;;;;;26.00;22.25;;;;;11.35;75.05;99980.84;5022613;28;45245;-84
2021/12/26 05:35:02;;;;;;;;;25.25;23.25;;;;;11.36;75.03;99978.19;5022548;28;46960;-85
2021/12/26 05:37:28;;;;;;;;;21.75;18.50;;;;;11.36;75.35;99974.69;5022274;28;45495;-85
2021/12/26 05:40:03;;;;;;;;;24.25;20.50;;;;;11.33;75.13;99967.69;5022146;28;45397;-83
2021/12/26 05:42:42;;;;;;;;;20.00;17.25;;;;;11.40;75.05;99977.22;5021860;28;45835;-85
2021/12/26 05:45:10;;;;;;;;;22.75;18.50;;;;;11.41;74.86;99972.81;5022123;28;47196;-85
2021/12/26 05:47:36;;;;;;;;;22.00;21.00;;;;;11.43;74.88;99976.31;5022775;28;45402;-84
2021/12/26 05:50:04;;;;;;;;;18.50;18.50;;;;;11.45;74.84;99975.38;5022307;28;45414;-85
2021/12/26 05:52:30;;;;;;;;;21.00;17.50;;;;;11.41;74.77;99979.00;5041086;28;45446;-85
2021/12/26 05:54:56;;;;;;;;;18.75;17.00;;;;;11.44;74.66;99985.94;5039961;28;46183;-85
2021/12/26 05:57:23;;;;;;;;;17.00;16.75;;;;;11.35;74.65;99967.69;5021974;28;45351;-85
2021/12/26 05:59:48;;;;;;;;;19.25;18.00;;;;;11.43;74.64;99978.94;5018473;28;45765;-85
2021/12/26 06:02:14;;;;;;;;;18.00;16.25;;;;;11.37;74.57;99976.44;5020219;28;45321;-85
2021/12/26 06:04:43;;;;;;;;;17.00;17.00;;;;;11.41;75.00;99973.72;5020700;28;47329;-84
2021/12/26 06:07:12;;;;;;;;;19.00;15.50;;;;;11.37;74.76;99965.88;5023437;28;45450;-84
2021/12/26 06:09:40;;;;;;;;;19.50;17.50;;;;;11.39;74.75;99969.38;5040812;28;45352;-85
2021/12/26 06:12:06;;;;;;;;;16.00;16.00;;;;;11.42;74.83;99969.31;5022385;28;45590;-84
2021/12/26 06:14:35;;;;;;;;;13.25;12.75;;;;;11.47;74.79;99976.22;5021876;28;47850;-85
2021/12/26 06:17:00;;;;;;;;;17.25;17.25;;;;;11.45;74.97;99970.09;5021357;28;45300;-85
2021/12/26 06:19:29;;;;;;;;;16.50;13.75;;;;;11.46;74.39;99973.59;5039774;28;45266;-85
2021/12/26 06:21:54;;;;;;;;;17.75;13.00;;;;;11.46;74.78;99973.59;5019319;28;45481;-85
2021/12/26 06:24:20;;;;;;;;;16.00;14.75;;;;;11.46;74.71;99977.09;5019807;28;46924;-85
2021/12/26 06:26:48;;;;;;;;;12.75;12.75;;;;;11.44;74.96;99976.28;5038056;28;45435;-84
2021/12/26 06:29:14;;;;;;;;;18.00;16.75;;;;;11.49;74.69;99984.06;5026034;28;45448;-85
2021/12/26 06:31:41;;;;;;;;;17.25;14.50;;;;;11.48;74.78;99971.81;5043869;28;45502;-84
2021/12/26 06:34:06;;;;;;;;;16.00;14.00;;;;;11.42;74.97;99962.25;5025427;28;48018;-84
2021/12/26 06:36:32;;;;;;;;;15.75;13.50;;;;;11.39;74.78;99967.59;5025123;28;45269;-85
2021/12/26 06:38:57;;;;;;;;;20.00;15.75;;;;;11.45;74.80;99964.84;5026091;28;45352;-85
2021/12/26 06:41:26;;;;;;;;;14.25;11.50;;;;;11.41;74.79;99957.00;5026607;28;45182;-85
2021/12/26 06:43:55;;;;;;;;;18.00;14.75;;;;;11.42;74.89;99961.41;5043672;28;45491;-85
2021/12/26 06:46:22;;;;;;;;;14.00;12.50;;;;;11.44;74.91;99967.47;5043992;28;45170;-85
2021/12/26 06:48:50;;;;;;;;;17.25;13.25;;;;;11.38;74.69;99960.56;5045525;28;45220;-86
2021/12/26 06:51:16;;;;;;;;;13.00;13.00;;;;;11.39;74.81;99972.00;5014002;28;45467;-85
2021/12/26 06:53:44;;;;;;;;;14.75;14.75;;;;;11.35;74.60;99962.41;5043687;28;46212;-85
2021/12/26 06:56:12;;;;;;;;;16.75;14.00;;;;;11.36;74.92;99965.03;5024310;28;45414;-85
2021/12/26 06:58:38;;;;;;;;;15.25;12.75;;;;;11.35;75.09;99951.88;5024559;28;45336;-85
2021/12/26 07:01:07;;;;;;;;;13.25;13.00;;;;;11.40;74.65;99963.19;5024112;28;45490;-85
2021/12/26 07:03:32;;;;;;;;;20.25;13.25;;;;;11.39;74.75;99970.22;5021316;28;46968;-85
2021/12/26 07:06:00;;;;;;;;;11.25;10.00;;;;;11.36;74.93;99954.50;5017371;28;45356;-86
2021/12/26 07:08:29;;;;;;;;;13.25;10.75;;;;;11.43;74.56;99968.41;5008307;28;45182;-86
2021/12/26 07:10:54;;;;;;;;;14.00;13.75;;;;;11.37;74.94;99947.44;5017663;28;45622;-86
2021/12/26 07:13:20;;;;;;;;;14.50;11.50;;;;;11.42;74.54;99959.63;5010500;28;47039;-85
2021/12/26 07:15:49;;;;;;;;;12.00;12.00;;;;;11.38;74.76;99951.81;5020735;28;45815;-91
2021/12/26 07:22:44;;;;;;;;;;;;;;;;;;;;;
2021/12/26 07:54:07;;;;;;;;;10.25;10.25;;;;;11.57;75.12;99974.25;4711236;22;45364;-88
2021/12/26 07:57:04;;;;;;;;;;;;;;;;;;;;;
2021/12/26 08:37:37;;;;;;;;;12.75;10.50;;;;;11.70;75.29;100009.16;5914164;22;46352;-84
2021/12/26 09:01:52;;;;;;;;;11.50;9.50;;;;;11.78;75.58;100014.28;4782415;29;45467;-86
2021/12/26 11:11:17;;;;;;;;;6.00;5.50;;;;;12.26;75.29;100007.09;5427618;22;47026;-87
2021/12/26 11:13:46;;;;;;;;;9.00;9.00;;;;;12.23;75.89;100007.19;5050109;28;48052;-82
